Fort Morgan, CO

6:51 PM MST on January 22, 2017 (GMT -0700)
Fort Morgan

Weather History for KFMM - March, 2013

Change the Weather History Date:

Monday, March 18, 2013

  Actual Average (KAKO) Record (KAKO)
Temperature  
Mean Temperature 38 °F -  
Max Temperature 51 °F 50 °F 77 °F (1941)
Min Temperature 24 °F 25 °F -5 °F (1943)
Degree Days  
Heating Degree Days 28    
Moisture  
Dew Point 8 °F    
Average Humidity 32    
Maximum Humidity 66    
Minimum Humidity 13    
Precipitation  
Precipitation 0.00 in - - ()
Sea Level Pressure  
Sea Level Pressure 29.89 in    
Wind  
Wind Speed 17 mph (WNW)    
Max Wind Speed 29 mph    
Max Gust Speed 39 mph    
Visibility 10 miles    
Events      
Averages and records for this station are not official NWS values.
T = Trace of Precipitation, MM = Missing Value Source: NWS Daily Summary

Daily Weather History Graph

Daily Weather History Graph

Search for Another Location

Airport or City:

Trip Planner

Search our weather history database for the weather conditions in past years. The results will help you decide how hot, cold, wet, or windy it might be!

Date:

Astronomy

Mar. 18, 2013 Rise Set
Actual Time 7:01 AM MDT 7:05 PM MDT
Civil Twilight 6:34 AM MDT 7:32 PM MDT
Nautical Twilight 6:02 AM MDT 8:04 PM MDT
Astronomical Twilight 5:30 AM MDT 8:36 PM MDT
Moon 11:02 AM MDT (3/18) 1:07 AM MDT (3/18)
Length of Visible Light 12h 58m
Length of Day
12h 04m
Waxing Crescent, 41% of the Moon is Illuminated
Mar 18
Waxing Crescent
Mar 19
First Quarter
Mar 27
Full
Apr 2
Last Quarter
Apr 10
New

Hourly Weather History & Observations

Time (MDT) Temp. Windchill Dew Point Humidity Pressure Visibility Wind Dir Wind Speed Gust Speed Precip Events Conditions
12:15 AM 30.2 °F 16.8 °F 17.4 °F 59% 29.84 in 10.0 mi NNW 23.0 mph - N/A   Clear
12:35 AM 30.0 °F 16.9 °F 17.8 °F 60% 29.85 in 10.0 mi NNW 21.9 mph 28.8 mph N/A   Clear
12:55 AM 29.3 °F 16.2 °F 17.6 °F 62% 29.86 in 10.0 mi NNW 20.7 mph 26.5 mph N/A   Clear
1:15 AM 28.4 °F 16.2 °F 16.9 °F 62% 29.87 in 10.0 mi NNW 17.3 mph - N/A   Clear
1:35 AM 27.5 °F 15.9 °F 16.7 °F 64% 29.89 in 10.0 mi North 15.0 mph - N/A   Clear
1:55 AM 25.5 °F 15.5 °F 15.6 °F 66% 29.89 in 10.0 mi NNW 10.4 mph - N/A   Clear
2:15 AM 25.3 °F 14.1 °F 14.9 °F 65% 29.89 in 10.0 mi NW 12.7 mph - N/A   Clear
2:35 AM 25.0 °F 15.5 °F 13.8 °F 63% 29.89 in 10.0 mi WNW 9.2 mph - N/A   Clear
2:55 AM 25.5 °F 16.2 °F 12.0 °F 57% 29.90 in 10.0 mi NW 9.2 mph - N/A   Clear
3:15 AM 27.0 °F 17.3 °F 10.4 °F 50% 29.89 in 10.0 mi West 10.4 mph - N/A   Clear
3:35 AM 24.4 °F 14.9 °F 10.0 °F 54% 29.89 in 10.0 mi West 9.2 mph - N/A   Clear
3:55 AM 25.0 °F 13.6 °F 10.2 °F 54% 29.89 in 10.0 mi WNW 12.7 mph - N/A   Clear
4:15 AM 24.8 °F 14.0 °F 9.9 °F 53% 29.88 in 10.0 mi WNW 11.5 mph - N/A   Clear
4:35 AM 25.2 °F 14.4 °F 9.3 °F 51% 29.88 in 10.0 mi WNW 11.5 mph - N/A   Clear
4:55 AM 25.3 °F 14.1 °F 9.9 °F 52% 29.87 in 10.0 mi WNW 12.7 mph - N/A   Clear
5:15 AM 25.9 °F 12.9 °F 8.6 °F 48% 29.87 in 10.0 mi WNW 17.3 mph - N/A   Clear
5:35 AM 28.0 °F 14.9 °F 7.0 °F 41% 29.88 in 10.0 mi WNW 19.6 mph - N/A   Clear
5:55 AM 28.6 °F 17.2 °F 5.7 °F 38% 29.88 in 10.0 mi WNW 15.0 mph - N/A   Clear
6:15 AM 28.9 °F 16.5 °F 4.8 °F 36% 29.88 in 10.0 mi NW 18.4 mph - N/A   Clear
6:35 AM 27.7 °F 15.6 °F 5.9 °F 40% 29.88 in 10.0 mi NNW 16.1 mph - N/A   Clear
6:55 AM 28.4 °F 15.4 °F 5.9 °F 39% 29.89 in 10.0 mi NNW 19.6 mph 24.2 mph N/A   Clear
7:15 AM 28.6 °F 16.0 °F 6.4 °F 39% 29.89 in 10.0 mi NNW 18.4 mph - N/A   Clear
7:35 AM 28.2 °F 15.5 °F 7.5 °F 42% 29.90 in 10.0 mi NNW 18.4 mph 24.2 mph N/A   Clear
7:55 AM 32.2 °F 20.4 °F 5.7 °F 33% 29.91 in 10.0 mi NW 19.6 mph 24.2 mph N/A   Clear
8:15 AM 34.9 °F 24.6 °F 5.0 °F 29% 29.92 in 10.0 mi NW 17.3 mph - N/A   Clear
8:35 AM 36.9 °F 27.5 °F 5.0 °F 26% 29.92 in 10.0 mi NW 16.1 mph 20.7 mph N/A   Clear
8:55 AM 38.3 °F 29.0 °F 4.1 °F 24% 29.93 in 10.0 mi NW 17.3 mph 23.0 mph N/A   Clear
9:15 AM 39.6 °F 31.3 °F 2.8 °F 22% 29.93 in 10.0 mi NW 15.0 mph 20.7 mph N/A   Clear
9:35 AM 40.6 °F 32.0 °F 1.6 °F 20% 29.93 in 10.0 mi WNW 17.3 mph 24.2 mph N/A   Clear
9:55 AM 41.7 °F 33.4 °F 1.4 °F 19% 29.94 in 10.0 mi WNW 17.3 mph 26.5 mph N/A   Clear
10:15 AM 42.6 °F 34.0 °F 0.1 °F 17% 29.94 in 10.0 mi WNW 19.6 mph 25.3 mph N/A   Scattered Clouds
10:35 AM 43.2 °F 34.7 °F 0.3 °F 17% 29.94 in 10.0 mi West 19.6 mph 25.3 mph N/A   Scattered Clouds
10:55 AM 43.9 °F 35.4 °F 0.1 °F 16% 29.94 in 10.0 mi WNW 20.7 mph 29.9 mph N/A   Scattered Clouds
11:15 AM 45.0 °F 36.9 °F 0.7 °F 16% 29.94 in 10.0 mi WNW 20.7 mph 29.9 mph N/A   Clear
11:35 AM 45.3 °F 37.6 °F 1.0 °F 16% 29.93 in 10.0 mi West 19.6 mph 26.5 mph N/A   Scattered Clouds
11:55 AM 46.4 °F 39.0 °F 1.9 °F 16% 29.93 in 10.0 mi West 19.6 mph 25.3 mph N/A   Scattered Clouds
12:15 PM 45.9 °F 37.6 °F 1.4 °F 16% 29.93 in 10.0 mi WNW 23.0 mph 29.9 mph N/A   Scattered Clouds
12:35 PM 48.0 °F - 2.7 °F 16% 29.91 in 10.0 mi West 18.4 mph 29.9 mph N/A   Scattered Clouds
12:55 PM 47.5 °F - 3.0 °F 16% 29.91 in 10.0 mi NW 17.3 mph 27.6 mph N/A   Mostly Cloudy
1:15 PM 47.1 °F - 3.9 °F 17% 29.91 in 10.0 mi West 20.7 mph 28.8 mph N/A   Overcast
1:35 PM 46.8 °F - 5.7 °F 19% 29.89 in 10.0 mi WNW 9.2 mph 28.8 mph N/A   Overcast
1:55 PM 48.2 °F - 6.4 °F 18% 29.89 in 10.0 mi WNW 11.5 mph 18.4 mph N/A   Overcast
2:15 PM 50.0 °F - 6.6 °F 17% 29.88 in 10.0 mi West 13.8 mph 26.5 mph N/A   Mostly Cloudy
2:35 PM 50.0 °F - 7.3 °F 18% 29.87 in 10.0 mi West 13.8 mph 25.3 mph N/A   Scattered Clouds
2:55 PM 50.4 °F - 6.1 °F 17% 29.85 in 10.0 mi West 13.8 mph 23.0 mph N/A   Scattered Clouds
3:15 PM 51.1 °F - 6.4 °F 16% 29.85 in 10.0 mi WNW 12.7 mph 19.6 mph N/A   Clear
3:35 PM 51.3 °F - 4.5 °F 15% 29.85 in 10.0 mi West 17.3 mph 27.6 mph N/A   Clear
3:55 PM 47.8 °F - 4.1 °F 17% 29.85 in 10.0 mi WSW 12.7 mph 19.6 mph N/A   Mostly Cloudy
4:15 PM 48.2 °F - 4.6 °F 17% 29.84 in 10.0 mi WSW 6.9 mph - N/A   Overcast
4:35 PM 49.6 °F - 4.8 °F 16% 29.84 in 10.0 mi SW 10.4 mph - N/A   Overcast
4:55 PM 51.4 °F - 4.5 °F 15% 29.84 in 10.0 mi WSW 11.5 mph - N/A   Mostly Cloudy
5:15 PM 51.8 °F - 2.8 °F 14% 29.83 in 10.0 mi West 15.0 mph 24.2 mph N/A   Scattered Clouds
5:35 PM 51.4 °F - 2.3 °F 13% 29.83 in 10.0 mi West 24.2 mph 31.1 mph N/A   Scattered Clouds
5:55 PM 50.5 °F - 1.9 °F 14% 29.84 in 10.0 mi West 28.8 mph 39.1 mph N/A   Scattered Clouds
6:15 PM 49.1 °F - 2.8 °F 15% 29.85 in 10.0 mi WNW 24.2 mph 34.5 mph N/A   Clear
6:35 PM 47.1 °F - 4.8 °F 18% 29.85 in 10.0 mi WNW 17.3 mph - N/A   Clear
6:55 PM 45.5 °F 38.9 °F 7.3 °F 21% 29.86 in 10.0 mi WNW 15.0 mph - N/A   Clear
7:15 PM 43.7 °F 35.7 °F 9.5 °F 25% 29.87 in 10.0 mi NW 18.4 mph - N/A   Scattered Clouds
7:35 PM 43.0 °F 35.7 °F 10.9 °F 27% 29.87 in 10.0 mi NW 15.0 mph - N/A   Scattered Clouds
7:55 PM 40.6 °F 33.8 °F 12.0 °F 31% 29.88 in 10.0 mi NNW 11.5 mph - N/A   Scattered Clouds
8:15 PM 38.5 °F 31.1 °F 13.5 °F 36% 29.88 in 10.0 mi NNW 11.5 mph - N/A   Scattered Clouds
8:35 PM 41.0 °F 33.1 °F 13.8 °F 33% 29.89 in 10.0 mi NW 15.0 mph - N/A   Mostly Cloudy
8:55 PM 43.0 °F 34.8 °F 13.8 °F 31% 29.89 in 10.0 mi NW 18.4 mph - N/A   Mostly Cloudy
9:15 PM 42.8 °F 34.3 °F 14.0 °F 31% 29.89 in 10.0 mi NW 19.6 mph 24.2 mph N/A   Mostly Cloudy
9:55 PM 41.4 °F 34.0 °F 14.9 °F 34% 29.91 in 10.0 mi NW 13.8 mph - N/A   Scattered Clouds
10:15 PM 41.2 °F 34.5 °F 14.9 °F 34% 29.91 in 10.0 mi NW 11.5 mph - N/A   Scattered Clouds
10:35 PM 41.4 °F 34.0 °F 14.9 °F 34% 29.91 in 10.0 mi NNW 13.8 mph - N/A   Mostly Cloudy
11:15 PM 39.4 °F 31.1 °F 14.4 °F 36% 29.92 in 10.0 mi NNW 15.0 mph - N/A   Overcast
11:35 PM 38.5 °F 29.6 °F 13.3 °F 36% 29.92 in 10.0 mi NNW 16.1 mph - N/A   Mostly Cloudy
11:55 PM 37.9 °F 28.5 °F 12.4 °F 35% 29.92 in 10.0 mi North 17.3 mph 23.0 mph N/A   Mostly Cloudy